• Join FlightAware (Why Join?)
  • Login
  • US Flag 
04:11AM EDT


 

Airport Tracker/Info


-or-


 

Live Flight TrackerFlight Track Log ✈ N137TK ✈ 07-May-2013 ✈ KAVL - CYQG

Flight Track Log - Related Links

Times and Time Zones

All times are in EDT time to prevent confusion due to time zone crossing. See the N137TK flight status page for this flight to view local times or setup timezone preferences in your user account.

Time Position Orientation Groundspeed Altitude Reporting Facility
EDT Latitude Longitude Course Direction KTS MPH feet Rate Location/Type
08:49AM 35.3519 -82.4983 152° Southeast 173 199 5,800  Level Atlanta Center
08:51AM 35.4219 -82.4281 39° Northeast 165 190 26,000 1,380 Climbing Atlanta Center
08:52AM 35.4656 -82.4272 North 165 190 10,000 -4,200 Descending Atlanta Center
08:53AM 35.7717 -82.5500 North  Level FlightAware Approximate
08:54AM 35.5869 -82.4403 355° North 281 323 13,500  Level Atlanta Center
08:55AM 35.6369 -82.4417 359° North 211 243 15,700 2,100 Climbing Atlanta Center
08:56AM 35.6892 -82.4458 356° North 177 204 17,700 1,800 Climbing Atlanta Center
08:57AM 35.7433 -82.4472 359° North 177 204 19,400 1,740 Climbing Atlanta Center
08:58AM 35.7956 -82.4514 356° North 177 204 21,200 1,680 Climbing Atlanta Center
08:59AM 35.8458 -82.4556 356° North 177 204 22,800 1,440 Climbing Atlanta Center
09:00AM 35.8981 -82.4597 356° North 177 204 24,100 1,320 Climbing Atlanta Center
09:01AM 35.9481 -82.4614 358° North 177 204 25,500 900 Climbing Atlanta Center
09:02AM 36.0022 -82.4653 357° North 182 209 26,000 240 Climbing Atlanta Center
09:03AM 36.0711 -82.4717 356° North 218 251 26,000  Level Atlanta Center
09:04AM 36.1464 -82.4781 356° North 256 295 26,000  Level Atlanta Center
09:05AM 36.2214 -82.4817 358° North 272 313 26,000  Level Atlanta Center
09:06AM 36.2989 -82.4878 356° North 277 319 26,000  Level Atlanta Center
09:07AM 36.3781 -82.4917 358° North 277 319 26,000  Level Atlanta Center
09:08AM 36.4533 -82.4978 356° North 277 319 26,000  Level Atlanta Center
09:09AM 36.5325 -82.5042 356° North 277 319 26,000  Level Atlanta Center
09:10AM 36.6097 -82.5078 358° North 277 319 26,000  Level Atlanta Center
09:12AM 36.7889 -82.5208 357° North 279 321 26,000  Level Indianapolis Center
09:13AM 36.8656 -82.5261 357° North 277 319 26,000  Level Indianapolis Center
09:14AM 36.9419 -82.5322 356° North 276 318 26,000  Level Indianapolis Center
09:15AM 37.0186 -82.5378 357° North 278 320 26,000  Level Indianapolis Center
09:16AM 37.0953 -82.5436 357° North 277 319 26,000  Level Indianapolis Center
09:17AM 37.1847 -82.5517 356° North 277 319 26,000  Level Indianapolis Center
09:18AM 37.2619 -82.5561 357° North 278 320 26,000  Level Indianapolis Center
09:19AM 37.3394 -82.5628 356° North 279 321 26,000  Level Indianapolis Center
09:20AM 37.4178 -82.5683 357° North 281 323 26,000  Level Indianapolis Center
09:21AM 37.4956 -82.5744 356° North 279 321 26,000  Level Indianapolis Center
09:22AM 37.5742 -82.5797 357° North 282 325 26,000  Level Indianapolis Center
09:23AM 37.6669 -82.5864 357° North 285 328 26,000  Level Indianapolis Center
09:25AM 37.7447 -82.5928 356° North 281 323 26,000  Level Indianapolis Center
09:26AM 37.8258 -82.5994 356° North 288 331 26,000  Level Indianapolis Center
09:27AM 37.9058 -82.6056 357° North 288 331 26,000  Level Indianapolis Center
09:28AM 37.9858 -82.6119 356° North 287 330 26,000  Level Indianapolis Center
09:29AM 38.0783 -82.6172 357° North 285 328 26,000  Level Indianapolis Center
09:30AM 38.1572 -82.6228 357° North 283 326 26,000  Level Indianapolis Center
09:31AM 38.2367 -82.6308 355° North 286 329 26,000  Level Indianapolis Center
09:32AM 38.3150 -82.6336 358° North 281 323 26,000  Level Indianapolis Center
09:33AM 38.3936 -82.6411 356° North 282 325 26,000  Level Indianapolis Center
09:34AM 38.4733 -82.6483 356° North 284 327 26,000  Level Indianapolis Center
09:35AM 38.5531 -82.6536 357° North 286 329 26,000  Level Indianapolis Center
09:36AM 38.6450 -82.6611 356° North 284 327 26,000  Level Indianapolis Center
09:37AM 38.7169 -82.6664 357° North 285 328 26,000  Level Indianapolis Center
09:38AM 38.7967 -82.6736 356° North 285 328 26,000  Level Indianapolis Center
09:39AM 38.8767 -82.6797 357° North 287 330 26,000  Level Indianapolis Center
09:40AM 38.9731 -82.6864 357° North 287 330 26,000  Level Indianapolis Center
09:41AM 39.0533 -82.6939 356° North 289 333 26,000  Level Indianapolis Center
09:42AM 39.1342 -82.6983 358° North 289 333 26,000  Level Indianapolis Center
09:43AM 39.2106 -82.7058 356° North 290 334 26,000  Level Indianapolis Center
09:44AM 39.3050 -82.7108 358° North 291 335 26,000  Level Indianapolis Center
09:45AM 39.3856 -82.7181 356° North 289 333 26,000  Level Indianapolis Center
09:46AM 39.4661 -82.7144 North 286 329 26,000  Level Indianapolis Center
09:47AM 39.5453 -82.7006 North 284 327 26,000  Level Indianapolis Center
09:48AM 39.6244 -82.6861 North 285 328 26,000  Level Indianapolis Center
09:49AM 39.7039 -82.6708 North 286 329 26,000  Level Indianapolis Center
09:50AM 39.7839 -82.6556 North 287 330 26,000  Level Indianapolis Center
09:51AM 39.8767 -82.6386 North 287 330 26,000  Level Indianapolis Center
09:52AM 39.9567 -82.6253 North 288 331 26,000  Level Indianapolis Center
09:53AM 40.0347 -82.6103 North 285 328 26,000  Level Indianapolis Center
09:54AM 40.1156 -82.5953 North 288 331 26,000  Level Indianapolis Center
09:55AM 40.1942 -82.5744 11° North 287 330 26,000  Level Indianapolis Center
09:57AM 40.2722 -82.5467 15° North 284 327 26,000  Level Indianapolis Center
09:58AM 40.3506 -82.5186 15° North 287 330 26,000  Level Indianapolis Center
09:59AM 40.4283 -82.4914 15° North 287 330 26,000  Level Indianapolis Center
10:00AM 40.5175 -82.4603 15° North 283 326 26,000  Level Indianapolis Center
10:01AM 40.5969 -82.4336 14° North 289 333 26,000  Level Indianapolis Center
10:01AM 40.6592 -82.4114 15° North 283 326 26,000 -540 Level Cleveland Center
10:02AM 40.7408 -82.3836 14° North 288 331 25,100 -1,020 Descending Cleveland Center
10:03AM 40.8164 -82.3556 16° North 298 343 24,000 -1,380 Descending Cleveland Center
10:04AM 40.9000 -82.3275 14° North 305 351 22,400 -1,020 Descending Cleveland Center
10:05AM 40.9778 -82.2992 15° North 293 337 22,000 -240 Descending Cleveland Center
10:06AM 41.0511 -82.2736 15° North 276 318 22,000 -360 Level Cleveland Center
10:07AM 41.1264 -82.2481 14° North 276 318 21,300 -1,140 Descending Cleveland Center
10:08AM 41.2167 -82.2144 16° North 290 334 19,800 -1,500 Descending Cleveland Center
10:09AM 41.2983 -82.1833 16° North 302 348 18,400 -1,380 Descending Cleveland Center
10:10AM 41.3817 -82.1883 357° North 296 341 17,100 -1,440 Descending Cleveland Center
10:11AM 41.4536 -82.2536 326° Northwest 287 330 15,600 -1,500 Descending Cleveland Center
10:12AM 41.5236 -82.3192 325° Northwest 305 351 14,200 -1,320 Descending Cleveland Center
10:13AM 41.5933 -82.3878 324° Northwest 310 357 13,000 -900 Descending Cleveland Center
10:14AM 41.6508 -82.4422 325° Northwest 303 349 12,500 -780 Descending Cleveland Center
10:15AM 41.7144 -82.5053 324° Northwest 298 343 11,500 -1,140 Descending Cleveland Center
10:16AM 41.7822 -82.5658 326° Northwest 292 336 10,300 -1,260 Descending Cleveland Center
10:17AM 41.8500 -82.6319 324° Northwest 292 336 9,000 -1,020 Descending Cleveland Center
10:18AM 41.8767 -82.6469 337° Northwest 290 334 9,000  Level Cleveland Center
10:18AM 41.9200 -82.6733 336° Northwest 280 322 9,000 -720 Level Cleveland Center
10:19AM 41.9531 -82.6911 338° Northwest 271 312 8,300 -1,440 Descending Cleveland Center
10:19AM 41.9903 -82.7147 335° Northwest 273 314 7,600 -1,380 Descending Cleveland Center
10:20AM 42.0211 -82.7325 337° Northwest 271 312 6,900 -1,440 Descending Cleveland Center
10:20AM 42.0561 -82.7506 339° North 267 307 6,200 -1,440 Descending Cleveland Center
10:21AM 42.0789 -82.7681 330° Northwest 250 288 5,600 -1,620 Descending Cleveland Center
10:21AM 42.1181 -82.7889 338° Northwest 255 293 4,600 -1,560 Descending Cleveland Center
10:22AM 42.1736 -82.8189 338° Northwest 233 268 2,900 -1,560 Descending Cleveland Center
10:23AM 42.2253 -82.8517 335° Northwest 214 246 1,500 -1,140 Descending Cleveland Center
10:24AM 42.2372 -82.8689 313° West 169 194 1,500 -240 Level Cleveland Center
10:25AM 42.2550 -82.9228 294° West 133 153 1,200 -300 Descending Cleveland Center
10:27AM 42.2667 -82.9500 334° Northwest  Level FlightAware Approximate
10:34AM 42.2756 -82.9556 334° Northwest  Level Estimated
10:35AM 42.2756 -82.9556 334° Northwest  Level Estimated